This is the latest recevied weather packets stored in our database for station/object K5WNG. If no packets are shown the sender has not sent any weather packets the latest 10 day(s).
| Time | Temp. | Humidity | Pressure | Rain* | Wind** | Luminosity | Snow |
|---|---|---|---|---|---|---|---|
| 1777483816 | 28.89° C | 80% | 1012.2 hPa | 0 mm | - | 342 W/m² | - |
| 1777483516 | 28.89° C | 78% | 1012.3 hPa | 0 mm | - | 428 W/m² | - |
| 1777479025 | 25.56° C | 91% | 1013 hPa | 0 mm | - | 373 W/m² | - |
| 1777478725 | 25.56° C | 92% | 1013.1 hPa | 0 mm | - | 375 W/m² | - |
| 1777476925 | 24.44° C | 95% | 1013.2 hPa | 0 mm | - | 142 W/m² | - |
| 1777469730 | 24.44° C | 92% | 1012.5 hPa | 0 mm | - | 46 W/m² | - |
| 1777469127 | 24.44° C | 93% | 1012.3 hPa | 0 mm | - | 39 W/m² | - |
| 1777468527 | 24.44° C | 93% | 1012.2 hPa | 0 mm | - | 35 W/m² | - |
| 1777468227 | 24.44° C | 93% | 1012 hPa | 0 mm | - | 36 W/m² | - |
| 1777466128 | 24.44° C | 93% | 1011.5 hPa | 0 mm | - | 16 W/m² | - |
| 1777465228 | 23.89° C | 94% | 1011.3 hPa | 0 mm | - | 15 W/m² | - |
| 1777464928 | 23.89° C | 94% | 1011.3 hPa | 0 mm | - | 9 W/m² | - |
| 1777464631 | 23.89° C | 93% | 1011.3 hPa | 0 mm | - | 6 W/m² | - |
| 1777462532 | 23.89° C | 93% | 1010.9 hPa | 0 mm | - | 0 W/m² | - |
| 1777462229 | 23.89° C | 93% | 1010.7 hPa | 0 mm | - | 0 W/m² | - |
| 1777461633 | 23.89° C | 93% | 1010.6 hPa | 0 mm | - | 0 W/m² | - |
| 1777461315 | 23.89° C | 93% | 1010.7 hPa | 0 mm | - | 0 W/m² | - |
| 1777460119 | 23.89° C | 93% | 1010.8 hPa | 0 mm | - | 0 W/m² | - |
| 1777459216 | 24.44° C | 92% | 1011 hPa | 0 mm | - | 0 W/m² | - |
| 1777458917 | 24.44° C | 92% | 1011 hPa | 0 mm | - | 0 W/m² | - |
| 1777458617 | 24.44° C | 92% | 1011.1 hPa | 0 mm | - | 0 W/m² | - |
| 1777458317 | 24.44° C | 92% | 1011.2 hPa | 0 mm | - | 0 W/m² | - |
| 1777458020 | 24.44° C | 92% | 1011.2 hPa | 0 mm | - | 0 W/m² | - |
| 1777457722 | 24.44° C | 92% | 1011.2 hPa | 0 mm | - | 0 W/m² | - |
| 1777457420 | 24.44° C | 92% | 1011.2 hPa | 0 mm | - | 0 W/m² | - |
* Rain latest hour (hover to see other rain measurements)
** Current wind speed in m/s (hover to see current wind gust speed)